• Join FlightAware (Why Join?)
  • Login
  • US Flag 
10:25PM EDT


 

Airport Tracker/Info


-or-


 

Live Flight TrackerFlight Track Log ✈ N945HC ✈ 24-May-2013 ✈ KMKE - FA54

Flight Track Log - Related Links

Times and Time Zones

All times are in EDT time to prevent confusion due to time zone crossing. See the N945HC flight status page for this flight to view local times or setup timezone preferences in your user account.

Time Position Orientation Groundspeed Altitude Reporting Facility
EDT Latitude Longitude Course Direction KTS MPH feet Rate Location/Type
10:02AM 42.9500 -87.8833 80° East 171 197 1,600  Level KMKE
10:02AM 42.9536 -87.8567 80° East 181 208 2,200 2,580 Climbing Chicago Center
10:03AM 42.9175 -87.8058 134° Southeast 229 264 5,300 3,000 Climbing Chicago Center
10:04AM 42.8606 -87.8856 226° Southwest 270 311 8,500 3,060 Climbing Chicago Center
10:05AM 42.8228 -87.9842 242° Southwest 291 335 11,700 2,760 Climbing Chicago Center
10:06AM 42.7408 -88.0511 211° Southwest 355 409 14,300 2,880 Climbing Chicago Center
10:07AM 42.6269 -88.0692 187° South 411 473 17,700 3,060 Climbing Chicago Center
10:08AM 42.5056 -88.0781 183° South 432 497 20,700 2,700 Climbing Chicago Center
10:09AM 42.3833 -88.0275 163° South 459 528 23,400 2,580 Climbing Chicago Center
10:10AM 42.2353 -87.9597 161° South 482 555 26,100 2,460 Climbing Chicago Center
10:11AM 42.1014 -87.9181 167° South 495 570 28,500 2,160 Climbing Chicago Center
10:12AM 41.9644 -87.8822 169° South 501 577 30,600 1,920 Climbing Chicago Center
10:13AM 41.8250 -87.8458 169° South 509 586 32,500 1,500 Climbing Chicago Center
10:14AM 41.6831 -87.8094 169° South 516 594 33,800 1,140 Climbing Chicago Center
10:15AM 41.5378 -87.7703 169° South 525 604 34,900 900 Climbing Chicago Center
10:16AM 41.3892 -87.7239 167° South 535 616 35,700 1,140 Climbing Chicago Center
10:17AM 41.2161 -87.6606 165° South 534 615 37,300 1,500 Climbing Chicago Center
10:19AM 41.0767 -87.6103 165° South 524 603 38,800 1,260 Climbing Chicago Center
10:20AM 40.9411 -87.5614 165° South 509 586 40,000 960 Climbing Chicago Center
10:21AM 40.8069 -87.5142 165° South 501 577 40,800 480 Climbing Chicago Center
10:22AM 40.6739 -87.4667 165° South 498 573 41,000 60 Climbing Chicago Center
10:23AM 40.5369 -87.4200 165° South 507 583 41,000  Level Chicago Center
10:24AM 40.3839 -87.3672 165° South 505 581 41,000  Level Chicago Center
10:25AM 40.2511 -87.3219 165° South 499 574 41,000  Level Chicago Center
10:26AM 40.1192 -87.2719 164° South 496 571 41,000  Level Chicago Center
10:26AM 40.0347 -87.2467 167° South 503 579 41,000  Level Indianapolis Center
10:27AM 39.8994 -87.1992 165° South 507 583 41,000  Level Indianapolis Center
10:28AM 39.7622 -87.1539 166° South 510 587 41,000  Level Indianapolis Center
10:29AM 39.5994 -87.0964 165° South 510 587 41,000  Level Indianapolis Center
10:30AM 39.4625 -87.0506 166° South 509 586 41,000  Level Indianapolis Center
10:31AM 39.3253 -87.0053 166° South 512 589 41,000  Level Indianapolis Center
10:33AM 39.1883 -86.9592 165° South 511 588 41,000  Level Indianapolis Center
10:34AM 39.0417 -86.9108 166° South 514 592 41,000  Level Indianapolis Center
10:35AM 38.9025 -86.8642 165° South 513 590 41,000  Level Indianapolis Center
10:36AM 38.7608 -86.8161 165° South 519 597 41,000  Level Indianapolis Center
10:37AM 38.6203 -86.7703 166° South 516 594 41,000  Level Indianapolis Center
10:38AM 38.4503 -86.7144 166° South 518 596 41,000  Level Indianapolis Center
10:39AM 38.3094 -86.6661 165° South 514 592 41,000  Level Indianapolis Center
10:40AM 38.1683 -86.6217 166° South 515 593 41,000  Level Indianapolis Center
10:41AM 38.0286 -86.5761 166° South 514 592 41,000  Level Indianapolis Center
10:42AM 37.8881 -86.5314 166° South 515 593 41,000  Level Indianapolis Center
10:43AM 37.7539 -86.4922 167° South 509 586 41,000  Level Indianapolis Center
10:44AM 37.6133 -86.4464 166° South 513 590 41,000  Level Indianapolis Center
10:45AM 37.4481 -86.3931 166° South 516 594 41,000  Level Indianapolis Center
10:46AM 37.3075 -86.3461 165° South 517 595 41,000  Level Indianapolis Center
10:47AM 37.1669 -86.3031 166° South 512 589 41,000  Level Indianapolis Center
10:48AM 37.0258 -86.2575 166° South 514 592 41,000  Level Indianapolis Center
10:49AM 36.8844 -86.2131 166° South 515 593 41,000  Level Indianapolis Center
10:50AM 36.7319 -86.1656 166° South 518 596 41,000  Level Memphis Center
10:51AM 36.5997 -86.1228 165° South 520 598 41,000  Level Indianapolis Center
10:52AM 36.4589 -86.0794 166° South 514 592 41,000  Level Indianapolis Center
10:53AM 36.3144 -86.0325 165° South 512 589 41,000  Level Memphis Center
10:54AM 36.1775 -85.9911 166° South 512 589 41,000  Level Memphis Center
10:55AM 36.0383 -85.9472 166° South 512 589 41,000  Level Memphis Center
10:56AM 35.8972 -85.9061 167° South 512 589 41,000  Level Memphis Center
10:58AM 35.6550 -85.8356 167° South 507 583 41,000  Level Atlanta Center
10:59AM 35.5158 -85.7917 166° South 507 583 41,000  Level Atlanta Center
11:00AM 35.3725 -85.7503 167° South 512 589 41,000  Level Atlanta Center
11:01AM 35.2333 -85.7067 166° South 512 589 41,000 60 Level Atlanta Center
11:02AM 35.0942 -85.6658 166° South 517 595 41,200 900 Climbing Atlanta Center
11:03AM 34.9569 -85.6253 166° South 511 588 42,900 900 Climbing Atlanta Center
11:04AM 34.8300 -85.5875 166° South 494 568 43,000  Climbing Atlanta Center
11:05AM 34.7011 -85.5472 166° South 487 560 43,000  Level Atlanta Center
11:06AM 34.5744 -85.5119 167° South 481 554 43,000  Level Atlanta Center
11:07AM 34.4475 -85.4744 166° South 476 548 43,000  Level Atlanta Center
11:08AM 34.3206 -85.4372 166° South 466 536 43,000  Level Atlanta Center
11:09AM 34.1936 -85.4000 166° South 474 545 43,000  Level Atlanta Center
11:10AM 34.0647 -85.3628 167° South 474 545 43,000  Level Atlanta Center
11:11AM 33.9378 -85.3233 166° South 474 545 43,000  Level Atlanta Center
11:12AM 33.8108 -85.2914 168° South 468 539 43,000 -60 Level Atlanta Center
11:13AM 33.6839 -85.2547 166° South 468 539 42,900 -540 Descending Atlanta Center
11:14AM 33.5550 -85.2153 166° South 468 539 42,000 -900 Descending Atlanta Center
11:15AM 33.4258 -85.1789 167° South 473 544 41,100 -600 Descending Atlanta Center
11:16AM 33.2864 -85.1372 166° South 498 573 40,900 -480 Descending Atlanta Center
11:17AM 33.1553 -85.0983 166° South 503 579 40,200 -720 Descending Atlanta Center
11:18AM 33.0178 -85.0594 167° South 503 579 39,500 -600 Descending Atlanta Center
11:19AM 32.8761 -85.0183 166° South 515 593 39,100 -300 Descending Atlanta Center
11:20AM 32.7553 -84.9800 165° South 517 595 39,000 -60 Descending Atlanta Center
11:21AM 32.6033 -84.9364 166° South 530 610 39,000  Level Atlanta Center
11:22AM 32.4617 -84.8981 167° South 530 610 39,000  Level Atlanta Center
11:23AM 32.3178 -84.8572 167° South 530 610 39,000  Level Atlanta Center
11:27AM 31.7444 -84.7003 167° South 522 601 39,000  Level Jacksonville Center
11:28AM 31.6008 -84.6611 167° South 522 601 39,000  Level Jacksonville Center
11:29AM 31.4617 -84.6144 164° South 527 606 39,000  Level Jacksonville Center
11:30AM 31.3247 -84.5536 159° South 527 606 39,000  Level Jacksonville Center
11:31AM 31.1878 -84.4906 158° South 527 606 39,000  Level Jacksonville Center
11:32AM 31.0361 -84.4250 160° South 527 606 39,000  Level Jacksonville Center
11:33AM 30.9011 -84.3647 159° South 527 606 39,000  Level Jacksonville Center
11:34AM 30.7661 -84.3044 159° South 527 606 39,000  Level Jacksonville Center
11:35AM 30.6289 -84.2444 159° South 527 606 39,000  Level Jacksonville Center
11:36AM 30.5106 -84.1922 159° South 527 606 39,000  Level Jacksonville Center
11:37AM 30.3753 -84.1350 160° South 517 595 39,000  Level Jacksonville Center
11:38AM 30.2361 -84.0756 160° South 517 595 39,000  Level Jacksonville Center
11:39AM 30.1028 -84.0186 160° South 522 601 39,000  Level Jacksonville Center
11:40AM 29.9697 -83.9619 160° South 522 601 39,000  Level Jacksonville Center
11:41AM 29.8367 -83.9031 159° South 522 601 39,000  Level Jacksonville Center
11:42AM 29.7078 -83.8253 152° Southeast 522 601 39,000  Level Jacksonville Center
11:43AM 29.5831 -83.7428 150° Southeast 522 601 39,000  Level Jacksonville Center
11:44AM 29.4561 -83.6631 151° Southeast 517 595 39,000  Level Jacksonville Center
11:45AM 29.3294 -83.5833 151° Southeast 522 601 39,000  Level Jacksonville Center
11:46AM 29.1983 -83.5133 155° Southeast 517 595 39,000 -180 Level Jacksonville Center
11:47AM 29.0692 -83.4414 154° Southeast 512 589 38,700 -1,020 Descending Jacksonville Center
11:48AM 28.9400 -83.3742 156° South 512 589 37,000 -2,100 Descending Jacksonville Center
11:49AM 28.8128 -83.3050 155° Southeast 512 589 34,600 -2,580 Descending Jacksonville Center
11:50AM 28.6858 -83.2358 154° Southeast 507 583 31,900 -2,820 Descending Jacksonville Center
11:51AM 28.5586 -83.1692 155° Southeast 507 583 29,000 -3,240 Descending Jacksonville Center
11:53AM 28.2747 -83.0200 155° Southeast 495 570 21,700 -3,060 Descending Miami Center
11:54AM 28.1606 -82.9572 154° Southeast 485 558 19,300 -1,380 Descending Miami Center
11:55AM 28.0525 -82.9022 156° South 452 520 19,000 -180 Descending Miami Center
11:56AM 27.9506 -82.8450 154° Southeast 447 514 19,000  Level Miami Center
11:57AM 27.8383 -82.7850 155° Southeast 447 514 19,000  Level Miami Center
11:57AM 27.7833 -82.7500 151° Southeast 456 525 19,000 -360 Level Tampa TRACON
11:58AM 27.7167 -82.7167 156° South 450 518 18,700 -1,140 Descending Tampa TRACON
11:59AM 27.6167 -82.6667 156° South 431 496 17,200 -1,800 Descending Tampa TRACON
12:00PM 27.5000 -82.6000 153° Southeast 413 475 15,200 -2,220 Descending Tampa TRACON
12:01PM 27.4167 -82.5500 152° Southeast 368 423 13,000 -2,580 Descending Tampa TRACON
12:02PM 27.3167 -82.5000 156° South 355 409 10,000 -2,700 Descending Tampa TRACON
12:03PM 27.2333 -82.4667 160° South 313 360 7,400 -1,980 Descending Tampa TRACON
12:05PM 27.1031 -82.3858 151° Southeast 296 341 4,100 -1,500 Descending Miami Center
12:06PM 27.0356 -82.3500 155° Southeast 286 329 2,900 -600 Descending Miami Center
12:07PM 26.9722 -82.3167 155° Southeast 265 305 2,900 -120 Level Miami Center
12:08PM 26.8983 -82.2783 155° Southeast 265 305 2,700 5,040 Descending Miami Center
12:09PM 26.8328 -82.2475 157° South 265 305 13,000 5,100 Climbing Miami Center
12:10PM 26.7650 -82.2142 156° South 265 305 13,000  Level Miami Center
12:11PM 26.7117 -82.1883 157° South 265 305 13,000  Level Miami Center
12:14PM 26.8500 -82.2500 338° Northwest  Level FlightAware Approximate
12:21PM 26.8548 -82.2511 338° Northwest  Level Estimated
12:22PM 26.8500 -82.2500 338° Northwest  Level FlightAware Approximate
12:23PM 26.8548 -82.2511 338° Northwest  Level Estimated
12:24PM 26.8500 -82.2500 338° Northwest  Level FlightAware Approximate
12:25PM 26.8548 -82.2511 338° Northwest  Level Estimated